createdAt,value
2022-11-29T00:02:14.202Z,96707.41
2022-11-29T00:04:40.733Z,96706.91
2022-11-29T00:07:07.186Z,96705.81
2022-11-29T00:09:33.541Z,96708.81
2022-11-29T00:11:59.910Z,96704.22
2022-11-29T00:14:26.281Z,96700.41
2022-11-29T00:16:52.699Z,96702.56
2022-11-29T00:19:19.170Z,96705.00
2022-11-29T00:21:45.561Z,96706.91
2022-11-29T00:24:11.975Z,96703.91
2022-11-29T00:26:38.410Z,96699.09
2022-11-29T00:29:04.767Z,96692.31
2022-11-29T00:31:31.142Z,96692.63
2022-11-29T00:33:57.582Z,96690.72
2022-11-29T00:36:23.967Z,96698.81
2022-11-29T00:38:50.420Z,96692.81
2022-11-29T00:41:16.783Z,96686.94
2022-11-29T00:43:43.255Z,96691.22
2022-11-29T00:46:09.658Z,96689.63
2022-11-29T00:48:36.087Z,96691.47
2022-11-29T00:51:02.454Z,96686.41
2022-11-29T00:53:28.855Z,96695.88
2022-11-29T00:55:55.488Z,96689.97
2022-11-29T00:58:21.832Z,96696.13
2022-11-29T01:00:48.228Z,96694.22
2022-11-29T01:03:14.697Z,96689.13
2022-11-29T01:05:41.056Z,96695.59
2022-11-29T01:08:07.441Z,96688.03
2022-11-29T01:10:33.854Z,96686.41
2022-11-29T01:13:00.225Z,96697.22
2022-11-29T01:15:26.602Z,96692.88
2022-11-29T01:17:53.002Z,96698.03
2022-11-29T01:20:19.398Z,96693.13
2022-11-29T01:22:45.801Z,96693.69
2022-11-29T01:25:12.168Z,96696.91
2022-11-29T01:27:38.628Z,96692.88
2022-11-29T01:30:05.196Z,96689.63
2022-11-29T01:32:31.569Z,96697.44
2022-11-29T01:34:57.930Z,96693.94
2022-11-29T01:37:24.329Z,96693.63
2022-11-29T01:39:50.710Z,96690.13
2022-11-29T01:42:17.128Z,96689.63
2022-11-29T01:44:43.820Z,96681.53
2022-11-29T01:47:10.320Z,96682.31
2022-11-29T01:49:36.781Z,96683.13
2022-11-29T01:52:03.139Z,96679.63
2022-11-29T01:54:29.527Z,96687.72
2022-11-29T01:56:55.894Z,96681.22
2022-11-29T01:59:22.303Z,96685.53
2022-11-29T02:01:48.676Z,96687.22
2022-11-29T02:04:15.044Z,96681.81
2022-11-29T02:06:41.400Z,96688.03
2022-11-29T02:09:07.756Z,96687.72
2022-11-29T02:11:34.130Z,96686.63
2022-11-29T02:16:35.767Z,96683.66
2022-11-29T02:21:43.945Z,96690.44
2022-11-29T02:24:10.331Z,96684.72
2022-11-29T02:26:36.741Z,96684.47
2022-11-29T02:29:03.123Z,96691.22
2022-11-29T02:31:29.505Z,96690.94
2022-11-29T02:33:55.853Z,96680.66
2022-11-29T02:36:22.209Z,96688.75
2022-11-29T02:38:48.583Z,96680.97
2022-11-29T02:41:14.999Z,96682.84
2022-11-29T02:43:41.359Z,96683.44
2022-11-29T02:46:07.764Z,96679.06
2022-11-29T02:48:34.307Z,96684.22
2022-11-29T02:51:00.683Z,96677.44
2022-11-29T02:53:27.090Z,96676.13
2022-11-29T02:55:53.446Z,96676.94
2022-11-29T02:58:19.792Z,96677.22
2022-11-29T03:00:46.218Z,96680.44
2022-11-29T03:03:12.567Z,96668.03
2022-11-29T03:05:38.942Z,96667.47
2022-11-29T03:08:05.340Z,96674.53
2022-11-29T03:10:31.708Z,96673.19
2022-11-29T03:12:58.083Z,96676.13
2022-11-29T03:15:24.525Z,96674.00
2022-11-29T03:17:50.930Z,96669.13
2022-11-29T03:20:17.316Z,96664.25
2022-11-29T03:22:43.722Z,96664.25
2022-11-29T03:25:10.090Z,96669.41
2022-11-29T03:27:36.532Z,96664.84
2022-11-29T03:30:02.911Z,96671.84
2022-11-29T03:32:29.313Z,96669.13
2022-11-29T03:34:57.321Z,96669.41
2022-11-29T03:37:24.137Z,96668.41
2022-11-29T03:39:50.580Z,96672.69
2022-11-29T03:42:17.022Z,96676.94
2022-11-29T03:44:43.737Z,96675.03
2022-11-29T03:47:10.308Z,96680.44
2022-11-29T03:49:36.802Z,96681.81
2022-11-29T03:52:03.217Z,96675.63
2022-11-29T03:54:29.591Z,96679.63
2022-11-29T03:56:55.946Z,96681.22
2022-11-29T03:59:22.303Z,96685.53
2022-11-29T04:01:48.844Z,96677.72
2022-11-29T04:04:15.257Z,96689.31
2022-11-29T04:06:41.607Z,96685.03
2022-11-29T04:09:07.955Z,96686.13
2022-11-29T04:11:34.339Z,96686.63
2022-11-29T04:14:00.696Z,96681.75
2022-11-29T04:16:27.070Z,96687.16
2022-11-29T04:18:53.414Z,96694.16
2022-11-29T04:21:19.789Z,96693.34
2022-11-29T04:23:46.147Z,96693.06
2022-11-29T04:26:12.532Z,96692.81
2022-11-29T04:28:38.905Z,96690.88
2022-11-29T04:31:05.327Z,96700.06
2022-11-29T04:33:31.711Z,96691.75
2022-11-29T04:35:58.069Z,96696.31
2022-11-29T04:38:24.566Z,96706.06
2022-11-29T04:40:50.925Z,96702.03
2022-11-29T04:43:17.285Z,96709.25
2022-11-29T04:45:43.661Z,96704.44
2022-11-29T04:48:10.019Z,96696.84
2022-11-29T04:50:36.410Z,96699.84
2022-11-29T04:53:02.778Z,96707.66
2022-11-29T04:55:31.074Z,96711.16
2022-11-29T04:57:57.707Z,96706.06
2022-11-29T05:00:24.069Z,96713.84
2022-11-29T05:02:50.462Z,96712.25
2022-11-29T05:05:16.845Z,96713.06
2022-11-29T05:07:43.276Z,96711.66
2022-11-29T05:10:09.690Z,96713.06
2022-11-29T05:12:36.074Z,96711.16
2022-11-29T05:15:02.439Z,96718.16
2022-11-29T05:17:28.862Z,96717.06
2022-11-29T05:19:55.208Z,96719.25
2022-11-29T05:22:21.636Z,96724.16
2022-11-29T05:24:47.969Z,96720.34
2022-11-29T05:27:14.337Z,96719.75
2022-11-29T05:29:40.735Z,96712.75
2022-11-29T05:32:07.100Z,96723.56
2022-11-29T05:34:35.267Z,96726.75
2022-11-29T05:37:01.956Z,96726.56
2022-11-29T05:39:28.338Z,96721.72
2022-11-29T05:41:54.707Z,96726.25
2022-11-29T05:44:21.081Z,96725.69
2022-11-29T05:46:47.458Z,96734.00
2022-11-29T05:49:13.884Z,96736.41
2022-11-29T05:51:40.264Z,96732.91
2022-11-29T05:54:06.670Z,96739.91
2022-11-29T05:56:33.067Z,96736.41
2022-11-29T05:58:59.451Z,96737.00
2022-11-29T06:01:25.816Z,96742.09
2022-11-29T06:03:52.221Z,96739.69
2022-11-29T06:06:18.575Z,96744.78
2022-11-29T06:08:44.922Z,96741.81
2022-11-29T06:11:11.369Z,96745.53
2022-11-29T06:13:37.808Z,96744.00
2022-11-29T06:16:04.202Z,96747.78
2022-11-29T06:18:30.613Z,96755.81
2022-11-29T06:20:57.006Z,96754.28
2022-11-29T06:23:23.360Z,96753.75
2022-11-29T06:25:49.742Z,96750.59
2022-11-29T06:28:16.144Z,96754.34
2022-11-29T06:30:42.535Z,96755.53
2022-11-29T06:33:08.916Z,96763.00
2022-11-29T06:35:35.291Z,96764.31
2022-11-29T06:38:01.755Z,96769.44
2022-11-29T06:40:28.140Z,96768.84
2022-11-29T06:42:54.555Z,96773.94
2022-11-29T06:45:20.902Z,96773.16
2022-11-29T06:47:47.260Z,96772.28
2022-11-29T06:50:13.659Z,96773.38
2022-11-29T06:52:40.089Z,96778.84
2022-11-29T06:55:06.457Z,96779.41
2022-11-29T06:57:32.858Z,96779.34
2022-11-29T06:59:59.660Z,96784.25
2022-11-29T07:02:26.224Z,96780.75
2022-11-29T07:04:52.985Z,96784.25
2022-11-29T07:07:19.577Z,96780.75
2022-11-29T07:09:46.045Z,96782.09
2022-11-29T07:12:12.418Z,96775.91
2022-11-29T07:14:38.766Z,96790.75
2022-11-29T07:17:05.134Z,96782.69
2022-11-29T07:19:31.524Z,96793.22
2022-11-29T07:21:57.958Z,96788.91
2022-11-29T07:24:24.326Z,96800.28
2022-11-29T07:26:55.163Z,96796.50
2022-11-29T07:29:24.502Z,96800.50
2022-11-29T07:31:50.970Z,96796.75
2022-11-29T07:34:17.459Z,96797.31
2022-11-29T07:36:43.835Z,96801.59
2022-11-29T07:39:10.203Z,96806.75
2022-11-29T07:41:36.651Z,96795.16
2022-11-29T07:44:03.091Z,96805.41
2022-11-29T07:46:29.506Z,96799.75
2022-11-29T07:48:55.905Z,96796.81
2022-11-29T07:51:22.281Z,96804.34
2022-11-29T07:53:48.666Z,96800.28
2022-11-29T07:56:15.143Z,96804.31
2022-11-29T07:58:41.604Z,96803.03
2022-11-29T08:01:08.128Z,96804.34
2022-11-29T08:03:34.565Z,96807.56
2022-11-29T08:06:00.934Z,96805.97
2022-11-29T08:08:27.364Z,96816.19
2022-11-29T08:10:53.725Z,96812.69
2022-11-29T08:13:20.117Z,96813.56
2022-11-29T08:15:46.488Z,96808.66
2022-11-29T08:18:12.969Z,96814.91
2022-11-29T08:20:39.343Z,96817.06
2022-11-29T08:23:05.721Z,96815.97
2022-11-29T08:25:32.070Z,96810.56
2022-11-29T08:27:58.472Z,96814.06
2022-11-29T08:30:24.966Z,96810.25
2022-11-29T08:32:51.924Z,96817.81
2022-11-29T08:35:18.401Z,96820.56
2022-11-29T08:37:44.794Z,96817.34
2022-11-29T08:40:11.187Z,96821.06
2022-11-29T08:42:37.571Z,96820.06
2022-11-29T08:45:03.934Z,96820.50
2022-11-29T08:47:30.298Z,96827.56
2022-11-29T08:49:56.679Z,96820.81
2022-11-29T08:52:23.176Z,96821.66
2022-11-29T08:54:49.553Z,96825.38
2022-11-29T09:00:02.412Z,96832.59
2022-11-29T09:02:28.951Z,96828.59
2022-11-29T09:04:55.398Z,96838.88
2022-11-29T09:07:21.967Z,96827.81
2022-11-29T09:09:48.508Z,96840.22
2022-11-29T09:12:14.916Z,96835.09
2022-11-29T09:14:41.309Z,96837.84
2022-11-29T09:17:07.668Z,96838.88
2022-11-29T09:19:34.040Z,96840.22
2022-11-29T09:22:00.415Z,96842.63
2022-11-29T09:24:26.882Z,96835.97
2022-11-29T09:26:53.302Z,96839.22
2022-11-29T09:29:19.691Z,96837.06
2022-11-29T09:31:46.100Z,96837.81
2022-11-29T09:34:12.623Z,96841.06
2022-11-29T09:36:39.042Z,96851.06
2022-11-29T09:39:05.410Z,96847.06
2022-11-29T09:41:31.785Z,96847.25
2022-11-29T09:43:58.148Z,96845.66
2022-11-29T09:46:24.561Z,96838.66
2022-11-29T09:48:51.089Z,96841.91
2022-11-29T09:51:17.469Z,96853.47
2022-11-29T09:53:43.882Z,96846.16
2022-11-29T09:56:10.249Z,96848.13
2022-11-29T09:58:36.634Z,96848.13
2022-11-29T10:01:02.997Z,96852.16
2022-11-29T10:03:29.397Z,96851.91
2022-11-29T10:05:55.809Z,96855.66
2022-11-29T10:08:22.205Z,96852.16
2022-11-29T10:10:48.584Z,96847.56
2022-11-29T10:13:14.968Z,96857.78
2022-11-29T10:15:41.339Z,96856.75
2022-11-29T10:18:07.734Z,96853.53
2022-11-29T10:20:39.190Z,96854.06
2022-11-29T10:23:07.072Z,96857.03
2022-11-29T10:25:33.480Z,96857.56
2022-11-29T10:27:59.906Z,96854.31
2022-11-29T10:30:26.331Z,96850.03
2022-11-29T10:32:52.768Z,96845.41
2022-11-29T10:35:19.107Z,96846.16
2022-11-29T10:38:01.525Z,96847.06
2022-11-29T10:40:31.852Z,96851.34
2022-11-29T10:42:58.228Z,96848.41
2022-11-29T10:45:24.719Z,96840.81
2022-11-29T10:47:51.111Z,96850.31
2022-11-29T10:50:17.475Z,96843.81
2022-11-29T10:52:43.833Z,96848.38
2022-11-29T10:55:10.179Z,96842.09
2022-11-29T10:57:36.538Z,96838.66
2022-11-29T11:00:03.111Z,96835.44
2022-11-29T11:02:29.514Z,96834.91
2022-11-29T11:04:55.938Z,96833.81
2022-11-29T11:07:22.387Z,96829.75
2022-11-29T11:09:48.872Z,96833.56
2022-11-29T11:12:15.263Z,96830.78
2022-11-29T11:14:41.680Z,96829.22
2022-11-29T11:17:08.071Z,96823.25
2022-11-29T11:19:34.782Z,96817.88
2022-11-29T11:22:01.169Z,96825.09
2022-11-29T11:24:27.565Z,96819.47
2022-11-29T11:26:53.949Z,96822.47
2022-11-29T11:29:20.347Z,96819.75
2022-11-29T11:31:46.724Z,96814.91
2022-11-29T11:34:13.104Z,96817.88
2022-11-29T11:36:39.585Z,96817.56
2022-11-29T11:39:05.978Z,96819.97
2022-11-29T11:41:32.355Z,96814.88
2022-11-29T11:43:58.714Z,96821.38
2022-11-29T11:46:25.132Z,96814.06
2022-11-29T11:48:51.607Z,96821.38
2022-11-29T11:51:18.001Z,96815.66
2022-11-29T11:53:44.414Z,96816.47
2022-11-29T11:56:10.791Z,96810.22
2022-11-29T11:58:37.204Z,96812.16
2022-11-29T12:01:05.032Z,96813.03
2022-11-29T12:03:32.085Z,96811.72
2022-11-29T12:05:58.536Z,96819.53
2022-11-29T12:08:24.971Z,96817.34
2022-11-29T12:10:51.416Z,96813.56
2022-11-29T12:13:17.778Z,96816.25
2022-11-29T12:15:44.186Z,96814.41
2022-11-29T12:18:10.655Z,96820.06
2022-11-29T12:20:37.078Z,96818.66
2022-11-29T12:23:03.499Z,96822.47
2022-11-29T12:25:29.868Z,96823.03
2022-11-29T12:27:56.272Z,96825.72
2022-11-29T12:30:22.627Z,96826.25
2022-11-29T12:32:49.020Z,96825.22
2022-11-29T12:35:18.814Z,96821.06
2022-11-29T12:37:45.643Z,96825.16
2022-11-29T12:40:12.000Z,96817.34
2022-11-29T12:42:38.405Z,96818.16
2022-11-29T12:45:04.759Z,96820.56
2022-11-29T12:47:38.347Z,96826.75
2022-11-29T12:50:05.031Z,96823.25
2022-11-29T12:52:31.457Z,96824.63
2022-11-29T12:54:57.834Z,96819.53
2022-11-29T12:57:24.235Z,96820.31
2022-11-29T12:59:50.663Z,96813.75
2022-11-29T13:02:17.063Z,96820.25
2022-11-29T13:04:43.624Z,96819.53
2022-11-29T13:07:10.165Z,96820.06
2022-11-29T13:09:36.661Z,96821.91
2022-11-29T13:12:03.096Z,96819.22
2022-11-29T13:14:44.893Z,96814.72
2022-11-29T13:17:11.261Z,96812.75
2022-11-29T13:19:37.663Z,96808.50
2022-11-29T13:22:04.120Z,96813.81
2022-11-29T13:24:30.544Z,96821.47
2022-11-29T13:26:56.935Z,96824.41
2022-11-29T13:29:23.341Z,96815.97
2022-11-29T13:31:49.767Z,96819.97
2022-11-29T13:34:16.129Z,96813.81
2022-11-29T13:36:42.484Z,96812.00
2022-11-29T13:39:08.858Z,96798.97
2022-11-29T13:41:35.216Z,96804.59
2022-11-29T13:44:01.595Z,96812.75
2022-11-29T13:46:27.993Z,96813.56
2022-11-29T13:48:54.395Z,96819.81
2022-11-29T13:51:20.786Z,96818.41
2022-11-29T13:53:49.356Z,96814.41
2022-11-29T13:56:15.965Z,96816.47
2022-11-29T13:58:42.393Z,96824.91
2022-11-29T14:01:08.823Z,96814.13
2022-11-29T14:03:35.218Z,96813.06
2022-11-29T14:06:01.600Z,96811.22
2022-11-29T14:08:34.081Z,96814.72
2022-11-29T14:11:14.330Z,96814.41
2022-11-29T14:13:40.723Z,96816.81
2022-11-29T14:16:07.127Z,96815.22
2022-11-29T14:18:33.565Z,96814.41
2022-11-29T14:20:59.943Z,96825.50
2022-11-29T14:23:26.319Z,96823.31
2022-11-29T14:25:52.980Z,96817.63
2022-11-29T14:28:19.489Z,96814.97
2022-11-29T14:30:45.904Z,96814.72
2022-11-29T14:33:12.285Z,96816.88
2022-11-29T14:35:38.705Z,96813.38
2022-11-29T14:38:05.082Z,96826.56
2022-11-29T14:40:31.493Z,96823.38
2022-11-29T14:42:57.838Z,96821.47
2022-11-29T14:45:24.331Z,96821.19
2022-11-29T14:47:50.705Z,96821.47
2022-11-29T14:50:17.075Z,96817.41
2022-11-29T14:52:43.512Z,96823.31
2022-11-29T14:55:09.999Z,96820.38
2022-11-29T14:57:36.383Z,96818.72
2022-11-29T15:00:02.804Z,96825.78
2022-11-29T15:02:29.324Z,96817.69
2022-11-29T15:04:55.758Z,96821.19
2022-11-29T15:07:22.184Z,96823.03
2022-11-29T15:09:48.581Z,96825.50
2022-11-29T15:12:14.942Z,96829.88
2022-11-29T15:14:41.348Z,96829.00
2022-11-29T15:17:07.754Z,96829.28
2022-11-29T15:19:34.151Z,96821.47
2022-11-29T15:22:00.521Z,96830.66
2022-11-29T15:24:28.921Z,96823.38
2022-11-29T15:26:55.414Z,96826.06
2022-11-29T15:29:21.788Z,96835.81
2022-11-29T15:31:48.209Z,96840.13
2022-11-29T15:34:17.337Z,96844.72
2022-11-29T15:36:43.963Z,96840.97
2022-11-29T15:39:10.342Z,96845.25
2022-11-29T15:41:36.708Z,96842.03
2022-11-29T15:44:03.074Z,96842.81
2022-11-29T15:46:29.465Z,96846.63
2022-11-29T15:48:55.829Z,96845.78
2022-11-29T15:51:22.229Z,96847.16
2022-11-29T15:53:48.631Z,96839.88
2022-11-29T15:56:15.000Z,96841.22
2022-11-29T15:58:41.375Z,96844.22
2022-11-29T16:01:07.915Z,96844.72
2022-11-29T16:03:34.346Z,96845.03
2022-11-29T16:06:00.705Z,96848.53
2022-11-29T16:08:27.096Z,96847.47
2022-11-29T16:10:53.545Z,96855.81
2022-11-29T16:13:19.983Z,96856.31
2022-11-29T16:15:46.382Z,96858.81
2022-11-29T16:18:12.760Z,96853.72
2022-11-29T16:20:39.164Z,96856.91
2022-11-29T16:23:05.526Z,96859.03
2022-11-29T16:25:37.212Z,96854.78
2022-11-29T16:28:04.075Z,96852.66
2022-11-29T16:30:30.495Z,96863.97
2022-11-29T16:32:56.840Z,96861.22
2022-11-29T16:35:23.195Z,96860.16
2022-11-29T16:37:49.689Z,96853.72
2022-11-29T16:40:16.064Z,96862.88
2022-11-29T16:42:42.445Z,96858.56
2022-11-29T16:45:08.906Z,96856.41
2022-11-29T16:47:35.275Z,96862.66
2022-11-29T16:50:01.697Z,96861.25
2022-11-29T16:52:28.170Z,96868.56
2022-11-29T16:54:54.535Z,96862.88
2022-11-29T16:57:21.023Z,96874.25
2022-11-29T16:59:47.418Z,96877.16
2022-11-29T17:02:13.836Z,96873.44
2022-11-29T17:04:40.276Z,96866.72
2022-11-29T17:07:06.655Z,96868.31
2022-11-29T17:09:33.036Z,96876.69
2022-11-29T17:11:59.400Z,96865.84
2022-11-29T17:14:25.772Z,96876.38
2022-11-29T17:16:52.324Z,96871.56
2022-11-29T17:19:19.256Z,96875.28
2022-11-29T17:21:46.226Z,96879.88
2022-11-29T17:24:12.768Z,96874.75
2022-11-29T17:26:39.127Z,96875.56
2022-11-29T17:29:05.553Z,96876.16
2022-11-29T17:31:32.140Z,96875.06
2022-11-29T17:33:58.586Z,96869.38
2022-11-29T17:36:24.977Z,96867.47
2022-11-29T17:38:51.346Z,96873.97
2022-11-29T17:41:17.721Z,96876.38
2022-11-29T17:43:44.270Z,96879.91
2022-11-29T17:46:10.740Z,96874.25
2022-11-29T17:48:37.157Z,96877.50
2022-11-29T17:51:07.024Z,96879.16
2022-11-29T17:53:39.885Z,96872.09
2022-11-29T17:56:06.225Z,96885.31
2022-11-29T17:58:32.683Z,96880.19
2022-11-29T18:00:59.105Z,96879.41
2022-11-29T18:03:25.518Z,96895.31
2022-11-29T18:05:51.925Z,96881.81
2022-11-29T18:08:18.313Z,96882.06
2022-11-29T18:10:44.707Z,96893.19
2022-11-29T18:13:11.072Z,96896.41
2022-11-29T18:15:37.518Z,96891.81
2022-11-29T18:18:03.896Z,96891.81
2022-11-29T18:20:30.385Z,96896.94
2022-11-29T18:22:56.797Z,96894.25
2022-11-29T18:25:39.789Z,96901.75
2022-11-29T18:28:06.698Z,96904.00
2022-11-29T18:30:33.149Z,96897.53
2022-11-29T18:32:59.568Z,96901.56
2022-11-29T18:35:25.953Z,96900.75
2022-11-29T18:38:14.574Z,96897.44
2022-11-29T18:40:38.968Z,96901.78
2022-11-29T18:43:05.356Z,96905.59
2022-11-29T18:45:31.729Z,96906.69
2022-11-29T18:47:58.127Z,96913.72
2022-11-29T18:50:24.572Z,96911.84
2022-11-29T18:52:50.949Z,96909.09
2022-11-29T18:55:17.354Z,96913.41
2022-11-29T18:57:43.904Z,96923.94
2022-11-29T19:00:10.269Z,96913.34
2022-11-29T19:02:36.688Z,96908.00
2022-11-29T19:05:03.144Z,96919.88
2022-11-29T19:07:29.578Z,96913.69
2022-11-29T19:09:56.025Z,96916.91
2022-11-29T19:12:22.418Z,96912.09
2022-11-29T19:14:50.216Z,96916.34
2022-11-29T19:17:16.739Z,96908.91
2022-11-29T19:19:43.247Z,96915.25
2022-11-29T19:22:09.783Z,96923.53
2022-11-29T19:24:36.296Z,96919.97
2022-11-29T19:27:02.692Z,96918.34
2022-11-29T19:29:29.059Z,96921.34
2022-11-29T19:31:55.443Z,96924.28
2022-11-29T19:34:21.851Z,96926.91
2022-11-29T19:36:48.246Z,96927.72
2022-11-29T19:39:14.631Z,96917.97
2022-11-29T19:41:41.006Z,96927.97
2022-11-29T19:44:07.428Z,96925.53
2022-11-29T19:46:33.998Z,96921.19
2022-11-29T19:49:00.454Z,96921.09
2022-11-29T19:51:26.823Z,96918.13
2022-11-29T19:53:53.194Z,96921.63
2022-11-29T19:56:19.595Z,96923.56
2022-11-29T19:58:46.003Z,96924.63
2022-11-29T20:01:12.518Z,96923.38
2022-11-29T20:03:38.901Z,96923.59
2022-11-29T20:06:05.319Z,96922.00
2022-11-29T20:08:31.685Z,96921.72
2022-11-29T20:10:58.058Z,96919.25
2022-11-29T20:13:24.457Z,96923.84
2022-11-29T20:15:50.875Z,96921.59
2022-11-29T20:18:17.342Z,96924.94
2022-11-29T20:20:43.735Z,96925.69
2022-11-29T20:23:10.266Z,96936.13
2022-11-29T20:25:36.650Z,96931.22
2022-11-29T20:28:03.195Z,96930.19
2022-11-29T20:30:29.803Z,96927.50
2022-11-29T20:32:56.211Z,96930.72
2022-11-29T20:35:22.580Z,96927.22
2022-11-29T20:37:48.954Z,96923.19
2022-11-29T20:40:15.307Z,96928.03
2022-11-29T20:42:41.680Z,96923.66
2022-11-29T20:45:08.062Z,96926.13
2022-11-29T20:47:34.470Z,96918.09
2022-11-29T20:50:00.851Z,96918.38
2022-11-29T20:52:27.218Z,96920.22
2022-11-29T20:54:53.597Z,96928.25
2022-11-29T20:57:20.224Z,96923.41
2022-11-29T20:59:46.698Z,96919.56
2022-11-29T21:02:13.172Z,96919.50
2022-11-29T21:04:39.655Z,96929.88
2022-11-29T21:07:06.055Z,96927.66
2022-11-29T21:09:32.429Z,96923.34
2022-11-29T21:11:58.797Z,96935.47
2022-11-29T21:14:25.154Z,96924.16
2022-11-29T21:16:51.519Z,96927.38
2022-11-29T21:19:18.090Z,96926.28
2022-11-29T21:21:44.690Z,96928.69
2022-11-29T21:24:11.035Z,96925.94
2022-11-29T21:26:41.817Z,96930.88
2022-11-29T21:29:08.740Z,96927.53
2022-11-29T21:31:35.191Z,96932.66
2022-11-29T21:34:01.607Z,96923.28
2022-11-29T21:36:28.417Z,96928.69
2022-11-29T21:38:55.691Z,96926.00
2022-11-29T21:41:22.124Z,96920.22
2022-11-29T21:44:06.198Z,96925.94
2022-11-29T21:46:33.390Z,96929.19
2022-11-29T21:48:59.913Z,96927.31
2022-11-29T21:51:26.291Z,96928.69
2022-11-29T21:53:52.664Z,96927.03
2022-11-29T21:56:19.033Z,96922.19
2022-11-29T21:58:45.453Z,96926.19
2022-11-29T22:01:11.896Z,96928.09
2022-11-29T22:03:38.276Z,96933.50
2022-11-29T22:06:04.717Z,96932.06
2022-11-29T22:08:31.108Z,96927.97
2022-11-29T22:10:57.467Z,96923.09
2022-11-29T22:13:26.316Z,96925.72
2022-11-29T22:15:53.929Z,96925.25
2022-11-29T22:18:20.383Z,96928.56
2022-11-29T22:20:46.750Z,96920.47
2022-11-29T22:23:13.121Z,96928.50
2022-11-29T22:25:39.496Z,96931.13
2022-11-29T22:28:05.855Z,96924.63
2022-11-29T22:30:32.274Z,96926.06
2022-11-29T22:32:58.674Z,96929.56
2022-11-29T22:35:25.025Z,96920.88
2022-11-29T22:37:51.385Z,96923.09
2022-11-29T22:40:17.744Z,96923.81
2022-11-29T22:42:44.087Z,96929.81
2022-11-29T22:45:10.462Z,96925.78
2022-11-29T22:47:36.914Z,96927.84
2022-11-29T22:50:03.289Z,96925.44
2022-11-29T22:52:29.724Z,96934.41
2022-11-29T22:55:01.310Z,96924.31
2022-11-29T22:57:30.763Z,96929.72
2022-11-29T22:59:57.178Z,96931.78
2022-11-29T23:02:23.655Z,96933.63
2022-11-29T23:04:50.139Z,96936.53
2022-11-29T23:07:16.647Z,96935.28
2022-11-29T23:09:43.088Z,96941.22
2022-11-29T23:12:09.446Z,96942.81
2022-11-29T23:14:35.804Z,96935.88
2022-11-29T23:17:02.200Z,96942.03
2022-11-29T23:19:28.566Z,96938.22
2022-11-29T23:21:54.966Z,96942.03
2022-11-29T23:24:21.328Z,96932.44
2022-11-29T23:26:47.690Z,96937.47
2022-11-29T23:29:14.060Z,96933.97
2022-11-29T23:31:40.489Z,96929.13
2022-11-29T23:34:06.962Z,96940.19
2022-11-29T23:36:33.323Z,96935.94
2022-11-29T23:38:59.738Z,96934.31
2022-11-29T23:41:26.118Z,96933.50
2022-11-29T23:43:52.518Z,96928.47
2022-11-29T23:46:18.969Z,96933.50
2022-11-29T23:48:45.414Z,96937.09
2022-11-29T23:51:11.795Z,96939.50
2022-11-29T23:53:38.165Z,96937.69
2022-11-29T23:56:04.633Z,96937.97
2022-11-29T23:58:31.058Z,96933.66
